Time;durP1;ratioP1;P1;durP2;ratioP2;P2;SDS_P1;SDS_P2;PMS_P1;PMS_P2;Temp;Humidity;BMP_temperature;BMP_pressure;BME280_temperature;BME280_humidity;BME280_pressure;Samples;Min_cycle;Max_cycle;Signal;HPM_P1;HPM_P2
2024/04/14 00:02:09;;;;;;;3.55;1.50;;;;;;;18.71;38.07;95705.22;5440372;26;19999;-46
2024/04/14 00:04:35;;;;;;;3.55;1.30;;;;;;;18.41;38.94;95705.09;5445914;26;20007;-46
2024/04/14 00:07:00;;;;;;;2.95;1.30;;;;;;;18.53;38.69;95699.91;5435413;26;20019;-46
2024/04/14 00:09:25;;;;;;;3.53;1.48;;;;;;;18.46;39.24;95696.53;5446382;26;20085;-46
2024/04/14 00:11:51;;;;;;;2.45;1.30;;;;;;;18.53;38.70;95697.28;5446638;26;20003;-48
2024/04/14 00:14:16;;;;;;;2.28;1.15;;;;;;;18.46;38.86;95699.97;5413300;26;20018;-46
2024/04/14 00:16:43;;;;;;;3.28;1.30;;;;;;;18.45;38.43;95693.09;5419925;26;20083;-47
2024/04/14 00:19:09;;;;;;;3.78;1.20;;;;;;;18.25;38.76;95698.50;5410618;26;20054;-46
2024/04/14 00:21:34;;;;;;;3.80;1.55;;;;;;;18.13;39.31;95692.31;5434865;26;20027;-45
2024/04/14 00:24:00;;;;;;;1.77;1.40;;;;;;;18.45;38.48;95689.63;5437276;26;20072;-45
2024/04/14 00:26:25;;;;;;;3.75;1.40;;;;;;;18.22;38.98;95691.03;5446124;26;20074;-47
2024/04/14 00:28:50;;;;;;;4.07;1.48;;;;;;;18.27;38.99;95688.56;5446313;26;20027;-46
2024/04/14 00:31:16;;;;;;;3.17;1.17;;;;;;;18.09;39.30;95684.03;5441547;26;20010;-48
2024/04/14 00:33:42;;;;;;;2.45;1.30;;;;;;;18.14;38.85;95688.66;5448495;26;20003;-45
2024/04/14 00:36:08;;;;;;;3.42;1.27;;;;;;;18.22;38.91;95685.78;5446240;26;20039;-46
2024/04/14 00:38:34;;;;;;;1.98;1.40;;;;;;;18.24;39.05;95683.72;5442456;26;20030;-46
2024/04/14 00:40:59;;;;;;;2.70;1.45;;;;;;;18.25;38.48;95681.91;5439694;26;20071;-45
2024/04/14 00:43:25;;;;;;;2.92;1.40;;;;;;;18.22;38.18;95680.50;5443614;26;20344;-45
2024/04/14 00:45:50;;;;;;;2.67;1.27;;;;;;;18.02;38.18;95687.72;5442856;26;20012;-45
2024/04/14 00:48:16;;;;;;;2.67;1.20;;;;;;;18.26;38.26;95680.88;5439959;26;20003;-45
2024/04/14 00:50:43;;;;;;;4.60;1.40;;;;;;;18.16;37.81;95681.34;5449073;26;20002;-46
2024/04/14 00:53:10;;;;;;;1.88;1.30;;;;;;;18.19;37.88;95680.13;5449900;26;20003;-46
2024/04/14 00:55:37;;;;;;;3.15;1.30;;;;;;;18.31;37.20;95678.41;5440748;26;19999;-46
2024/04/14 00:58:04;;;;;;;1.65;1.05;;;;;;;18.49;36.93;95677.66;5418164;26;20000;-46
2024/04/14 01:00:29;;;;;;;2.90;1.30;;;;;;;18.55;36.85;95679.44;5444514;26;20003;-49
2024/04/14 01:02:55;;;;;;;3.17;1.25;;;;;;;18.61;37.06;95688.31;5443478;26;20014;-47
2024/04/14 01:05:24;;;;;;;4.05;1.20;;;;;;;18.71;36.72;95689.41;5449368;26;20014;-47
2024/04/14 01:07:51;;;;;;;6.00;1.20;;;;;;;18.86;36.57;95688.28;5448551;26;20026;-46
2024/04/14 01:10:17;;;;;;;4.07;1.50;;;;;;;18.52;38.22;95687.75;5449213;26;20080;-46
2024/04/14 01:12:43;;;;;;;3.95;1.25;;;;;;;18.53;36.89;95692.81;5437022;26;20006;-47
2024/04/14 01:15:08;;;;;;;3.22;1.15;;;;;;;18.54;36.25;95694.44;5450523;26;20003;-46
2024/04/14 01:17:34;;;;;;;4.38;1.20;;;;;;;18.58;36.98;95689.53;5445535;26;20007;-46
2024/04/14 01:19:59;;;;;;;3.30;1.23;;;;;;;18.68;36.60;95689.84;5413119;26;19999;-46
2024/04/14 01:22:24;;;;;;;2.60;1.40;;;;;;;18.81;36.32;95685.50;5442614;26;20052;-46
2024/04/14 01:24:50;;;;;;;1.73;1.23;;;;;;;18.63;36.86;95681.78;5443041;26;20000;-46
2024/04/14 01:27:16;;;;;;;3.72;1.40;;;;;;;18.84;36.27;95672.69;5436734;26;20444;-46
2024/04/14 01:29:41;;;;;;;2.90;1.10;;;;;;;18.33;37.45;95671.91;5447043;26;20003;-48
2024/04/14 01:32:07;;;;;;;3.25;1.10;;;;;;;18.18;37.72;95671.41;5449110;26;19999;-45
2024/04/14 01:34:32;;;;;;;1.45;1.10;;;;;;;18.00;37.54;95668.72;5443022;26;20012;-45
2024/04/14 01:36:57;;;;;;;4.95;1.20;;;;;;;18.17;36.38;95667.19;5445841;26;20333;-46
2024/04/14 01:39:23;;;;;;;2.97;1.20;;;;;;;18.41;36.52;95665.56;5392228;26;20007;-47
2024/04/14 01:41:48;;;;;;;2.25;1.10;;;;;;;18.55;36.46;95664.44;5439536;26;20007;-45
2024/04/14 01:44:14;;;;;;;2.42;1.00;;;;;;;18.59;36.84;95659.53;5425174;26;20015;-45
2024/04/14 01:46:39;;;;;;;3.40;1.40;;;;;;;18.62;36.27;95658.28;5423237;26;20044;-46
2024/04/14 01:49:05;;;;;;;1.48;1.08;;;;;;;18.19;36.94;95665.13;5441884;26;20017;-46
2024/04/14 01:51:30;;;;;;;2.42;1.30;;;;;;;18.10;37.31;95661.94;5448653;26;20006;-46
2024/04/14 01:53:56;;;;;;;7.93;1.20;;;;;;;18.31;37.53;95659.97;5446534;26;20010;-46
2024/04/14 01:56:21;;;;;;;1.58;1.20;;;;;;;18.25;37.30;95659.00;5450509;26;20009;-47
2024/04/14 01:58:46;;;;;;;2.63;1.20;;;;;;;18.23;35.25;95658.41;5450803;26;20003;-47
2024/04/14 02:01:12;;;;;;;3.05;1.23;;;;;;;18.28;36.12;95652.53;5448287;26;20072;-45
2024/04/14 02:03:41;;;;;;;4.40;1.10;;;;;;;18.47;35.96;95658.66;5447002;26;20013;-46
2024/04/14 02:06:07;;;;;;;2.15;1.20;;;;;;;18.12;38.22;95659.09;5443270;26;20007;-46
2024/04/14 02:08:33;;;;;;;2.13;1.17;;;;;;;18.12;37.75;95657.28;5448242;26;20002;-46
2024/04/14 02:11:00;;;;;;;2.17;1.20;;;;;;;18.09;37.59;95659.53;5448409;26;20013;-45
2024/04/14 02:13:25;;;;;;;1.98;1.10;;;;;;;18.12;36.97;95662.53;5436075;26;20004;-46
2024/04/14 02:15:50;;;;;;;2.90;1.40;;;;;;;18.21;37.00;95662.28;5440875;26;20450;-46
2024/04/14 02:18:16;;;;;;;2.80;1.20;;;;;;;18.30;36.75;95661.81;5442566;26;20003;-47
2024/04/14 02:20:43;;;;;;;2.75;1.30;;;;;;;18.17;37.53;95654.00;5432603;26;20071;-47
2024/04/14 02:23:09;;;;;;;2.88;1.10;;;;;;;18.12;37.09;95667.00;5447115;26;20009;-46
2024/04/14 02:25:34;;;;;;;2.80;1.20;;;;;;;18.15;36.69;95654.22;5450204;26;19999;-45
2024/04/14 02:28:00;;;;;;;1.80;1.05;;;;;;;17.84;37.15;95656.81;5441803;26;20333;-46
2024/04/14 02:30:25;;;;;;;2.78;1.20;;;;;;;17.82;37.77;95654.44;5422514;26;20102;-45
2024/04/14 02:32:51;;;;;;;3.55;1.25;;;;;;;17.53;39.17;95650.53;5442302;26;20031;-45
2024/04/14 02:35:16;;;;;;;1.83;1.17;;;;;;;17.45;38.66;95648.94;5435005;26;20003;-47
2024/04/14 02:37:41;;;;;;;2.38;1.08;;;;;;;17.45;37.99;95646.31;5439166;26;20004;-46
2024/04/14 02:40:07;;;;;;;2.97;1.23;;;;;;;17.68;38.07;95647.63;5418141;26;20014;-46
2024/04/14 02:42:36;;;;;;;1.55;0.90;;;;;;;17.65;38.03;95650.66;5440946;26;20003;-45
2024/04/14 02:45:01;;;;;;;1.67;0.93;;;;;;;17.57;38.19;95649.91;5447303;26;20006;-46
2024/04/14 02:47:26;;;;;;;1.80;0.90;;;;;;;17.64;37.46;95635.91;5440293;26;20525;-45
2024/04/14 02:49:52;;;;;;;2.13;1.20;;;;;;;17.61;38.11;95642.41;5423759;26;20014;-49
2024/04/14 02:52:17;;;;;;;2.67;1.20;;;;;;;17.67;38.09;95635.47;5428421;26;19999;-45
2024/04/14 02:54:42;;;;;;;1.88;1.17;;;;;;;17.37;38.95;95638.69;5437480;26;19999;-46
2024/04/14 02:57:08;;;;;;;4.30;1.10;;;;;;;17.53;38.12;95630.28;5411959;26;19998;-47
2024/04/14 02:59:37;;;;;;;2.47;1.20;;;;;;;17.28;38.46;95632.84;5417463;26;20014;-45
2024/04/14 03:02:02;;;;;;;2.15;1.02;;;;;;;17.15;39.70;95628.47;5449697;26;20052;-45
2024/04/14 03:04:28;;;;;;;2.70;1.10;;;;;;;17.26;39.08;95645.41;5445721;26;19999;-48
2024/04/14 03:06:54;;;;;;;3.75;1.30;;;;;;;17.14;39.97;95642.63;5449230;26;20018;-47
2024/04/14 03:09:19;;;;;;;3.15;1.30;;;;;;;17.13;39.44;95643.63;5432247;26;20003;-45
2024/04/14 03:11:44;;;;;;;2.00;1.00;;;;;;;17.01;40.26;95658.44;5447933;26;19995;-46
2024/04/14 03:14:10;;;;;;;3.00;1.10;;;;;;;17.14;39.11;95645.25;5446635;26;20003;-45
2024/04/14 03:16:35;;;;;;;1.70;0.90;;;;;;;17.04;39.76;95631.75;5447267;26;20018;-45
2024/04/14 03:19:01;;;;;;;2.13;1.00;;;;;;;16.85;39.80;95637.84;5446892;26;20003;-47
2024/04/14 03:21:26;;;;;;;4.22;1.20;;;;;;;16.88;40.11;95642.69;5449035;26;19999;-45
2024/04/14 03:23:51;;;;;;;1.42;1.10;;;;;;;16.87;39.82;95636.66;5443031;26;20013;-48
2024/04/14 03:26:17;;;;;;;2.97;1.00;;;;;;;17.13;39.48;95635.72;5445753;26;19995;-45
2024/04/14 03:28:42;;;;;;;2.67;1.00;;;;;;;17.17;38.83;95644.84;5433374;26;20085;-46
2024/04/14 03:31:08;;;;;;;2.58;1.10;;;;;;;17.15;38.70;95643.41;5447350;26;20011;-46
2024/04/14 03:33:33;;;;;;;2.88;1.20;;;;;;;17.11;39.17;95653.53;5439684;26;20018;-47
2024/04/14 03:36:03;;;;;;;1.65;1.05;;;;;;;17.18;39.44;95640.38;5442864;26;20009;-46
2024/04/14 03:38:29;;;;;;;2.08;1.20;;;;;;;17.05;39.10;95641.22;5447963;26;20013;-47
2024/04/14 03:40:55;;;;;;;2.00;1.05;;;;;;;17.12;39.05;95635.97;5445829;26;20006;-46
2024/04/14 03:43:20;;;;;;;1.58;0.93;;;;;;;17.16;39.51;95637.94;5441030;26;19999;-45
2024/04/14 03:45:45;;;;;;;2.50;0.90;;;;;;;17.18;38.41;95641.19;5446691;26;20003;-45
2024/04/14 03:48:11;;;;;;;1.45;1.10;;;;;;;17.26;38.56;95641.97;5445386;26;20017;-46
2024/04/14 03:50:36;;;;;;;2.13;1.00;;;;;;;17.24;38.96;95646.63;5439977;26;20006;-45
2024/04/14 03:53:01;;;;;;;2.15;1.00;;;;;;;17.03;39.21;95647.72;5448437;26;20010;-45
2024/04/14 03:55:27;;;;;;;1.80;1.02;;;;;;;17.20;38.74;95647.03;5435466;26;20019;-46
2024/04/14 03:57:52;;;;;;;1.55;1.10;;;;;;;17.13;38.94;95642.81;5445662;26;20457;-45
2024/04/14 04:00:18;;;;;;;2.38;1.10;;;;;;;17.04;39.13;95638.81;5439576;26;20003;-45
2024/04/14 04:02:43;;;;;;;2.25;1.00;;;;;;;17.00;39.68;95639.22;5435877;26;20004;-47
2024/04/14 04:05:08;;;;;;;2.15;1.13;;;;;;;17.08;38.39;95637.41;5448176;26;20006;-45
2024/04/14 04:07:34;;;;;;;2.70;1.08;;;;;;;17.04;39.54;95630.91;5449489;26;20431;-45
2024/04/14 04:10:00;;;;;;;2.97;0.90;;;;;;;16.88;39.83;95637.44;5449924;26;20010;-45
2024/04/14 04:12:25;;;;;;;2.28;1.08;;;;;;;16.71;40.08;95645.72;5448439;26;20003;-46
2024/04/14 04:14:51;;;;;;;1.90;1.25;;;;;;;16.94;39.21;95642.66;5450065;26;20002;-45
2024/04/14 04:17:17;;;;;;;1.58;0.90;;;;;;;16.95;38.56;95638.25;5449931;26;20032;-47
2024/04/14 04:19:42;;;;;;;1.83;1.10;;;;;;;16.92;38.37;95643.91;5414688;26;20000;-46
2024/04/14 04:22:07;;;;;;;1.80;1.08;;;;;;;16.87;39.01;95635.81;5412581;26;20082;-45
2024/04/14 04:24:33;;;;;;;2.83;1.33;;;;;;;16.83;38.94;95638.06;5404159;26;20068;-45
2024/04/14 04:26:58;;;;;;;2.20;0.82;;;;;;;16.70;39.88;95638.88;5432036;26;20007;-47
2024/04/14 04:29:25;;;;;;;2.58;1.00;;;;;;;16.66;39.13;95634.22;5438275;26;20002;-45
2024/04/14 04:31:51;;;;;;;2.22;1.00;;;;;;;16.71;39.20;95629.97;5449913;26;19998;-46
2024/04/14 04:34:16;;;;;;;3.22;1.10;;;;;;;16.87;38.95;95620.06;5447032;26;20018;-45
2024/04/14 04:36:44;;;;;;;3.25;1.00;;;;;;;16.92;38.32;95617.63;5438382;26;19998;-46
2024/04/14 04:39:09;;;;;;;2.15;1.05;;;;;;;17.13;37.88;95614.69;5444766;26;20083;-45
2024/04/14 04:41:35;;;;;;;1.88;0.90;;;;;;;16.94;38.67;95612.97;5449406;26;20421;-46
2024/04/14 04:44:03;;;;;;;1.60;1.10;;;;;;;17.05;37.50;95614.94;5449915;26;20007;-46
2024/04/14 04:46:29;;;;;;;2.30;0.88;;;;;;;17.11;36.85;95613.31;5433442;26;20017;-46
2024/04/14 04:48:56;;;;;;;1.40;1.10;;;;;;;17.19;37.15;95624.41;5451524;26;20030;-48
2024/04/14 04:51:22;;;;;;;3.30;1.20;;;;;;;17.25;37.65;95628.03;5439423;26;20010;-49
2024/04/14 04:53:48;;;;;;;2.03;1.00;;;;;;;17.17;37.20;95628.25;5417519;26;20014;-46
2024/04/14 04:56:13;;;;;;;2.08;1.23;;;;;;;17.20;37.90;95626.00;5449259;26;20010;-45
2024/04/14 04:58:39;;;;;;;2.33;1.10;;;;;;;17.17;37.77;95625.63;5419392;26;19998;-45
2024/04/14 05:01:04;;;;;;;3.03;1.20;;;;;;;17.31;36.89;95627.19;5450521;26;20017;-49
2024/04/14 05:03:29;;;;;;;1.70;1.10;;;;;;;17.36;36.19;95630.00;5432692;26;20334;-47
2024/04/14 05:06:00;;;;;;;1.90;1.10;;;;;;;17.10;37.06;95625.66;5420938;26;20073;-49
2024/04/14 05:08:26;;;;;;;2.58;1.00;;;;;;;17.23;37.49;95631.84;5434271;26;20000;-46
2024/04/14 05:10:56;;;;;;;1.90;1.00;;;;;;;17.08;37.32;95630.31;5444866;26;20003;-45
2024/04/14 05:13:25;;;;;;;1.40;0.90;;;;;;;17.32;36.80;95627.97;5440938;26;20015;-46
2024/04/14 05:15:50;;;;;;;3.65;1.10;;;;;;;17.72;35.67;95630.41;5439230;26;20076;-46
2024/04/14 05:18:16;;;;;;;1.58;0.98;;;;;;;17.75;36.13;95638.66;5451239;26;20467;-46
2024/04/14 05:20:43;;;;;;;2.20;1.10;;;;;;;17.94;35.27;95629.06;5437264;26;20004;-48
2024/04/14 05:23:08;;;;;;;2.25;1.00;;;;;;;17.76;35.43;95628.94;5448954;26;20044;-48
2024/04/14 05:25:34;;;;;;;1.85;0.90;;;;;;;17.75;36.01;95633.41;5449148;26;20035;-46
2024/04/14 05:27:59;;;;;;;3.35;1.20;;;;;;;17.76;36.86;95639.47;5441062;26;20003;-47
2024/04/14 05:30:25;;;;;;;1.83;0.85;;;;;;;17.59;37.67;95633.91;5449711;26;20316;-49
2024/04/14 05:32:54;;;;;;;1.10;1.00;;;;;;;17.94;35.05;95631.69;5452051;26;20325;-45
2024/04/14 05:35:20;;;;;;;2.40;1.30;;;;;;;17.75;37.44;95632.59;5448018;26;20448;-46
2024/04/14 05:37:45;;;;;;;3.08;1.10;;;;;;;18.19;35.93;95636.16;5450070;26;20081;-48
2024/04/14 05:40:11;;;;;;;3.40;1.00;;;;;;;19.30;35.43;95636.28;5435082;26;20011;-45
2024/04/14 05:42:36;;;;;;;2.45;1.00;;;;;;;20.96;32.93;95643.56;5448928;26;20080;-46
2024/04/14 05:45:02;;;;;;;1.10;0.82;;;;;;;22.50;31.06;95640.25;5448723;26;20035;-48
2024/04/14 05:47:27;;;;;;;1.80;1.00;;;;;;;23.94;28.56;95642.88;5440121;26;20018;-46
2024/04/14 05:49:53;;;;;;;1.00;0.90;;;;;;;25.13;25.74;95647.97;5442219;26;20046;-46
2024/04/14 05:52:18;;;;;;;4.72;1.10;;;;;;;26.30;23.77;95646.75;5443460;26;20003;-45
2024/04/14 05:54:43;;;;;;;1.83;0.80;;;;;;;27.12;22.56;95646.63;5447450;26;20013;-48
2024/04/14 05:57:09;;;;;;;1.75;0.82;;;;;;;27.59;22.55;95642.75;5416022;26;20003;-48
2024/04/14 05:59:34;;;;;;;2.97;0.93;;;;;;;28.14;22.10;95650.72;5439794;26;20011;-46
2024/04/14 06:01:59;;;;;;;3.47;1.08;;;;;;;28.91;21.69;95651.97;5448093;26;20018;-46
2024/04/14 06:04:25;;;;;;;1.15;0.85;;;;;;;29.36;20.21;95652.53;5448602;26;20106;-46
2024/04/14 06:06:50;;;;;;;1.35;0.90;;;;;;;29.69;20.32;95648.09;5447599;26;20017;-47
2024/04/14 06:09:16;;;;;;;1.05;0.75;;;;;;;30.17;19.71;95655.22;5450450;26;19999;-46
2024/04/14 06:11:41;;;;;;;2.42;1.00;;;;;;;30.17;19.36;95657.91;5440619;26;20010;-48
2024/04/14 06:14:06;;;;;;;2.03;0.88;;;;;;;29.56;21.23;95657.66;5438125;26;20018;-46
2024/04/14 06:16:32;;;;;;;1.60;0.80;;;;;;;29.31;23.10;95657.97;5431505;26;20452;-46
2024/04/14 06:18:57;;;;;;;1.17;0.80;;;;;;;28.43;24.11;95658.78;5429039;26;20072;-46
2024/04/14 06:21:23;;;;;;;2.42;0.90;;;;;;;29.33;23.81;95659.28;5433192;26;20027;-48
2024/04/14 06:23:48;;;;;;;1.40;1.00;;;;;;;29.49;22.86;95659.09;5442353;26;20015;-48
2024/04/14 06:26:13;;;;;;;2.17;1.10;;;;;;;29.73;22.98;95665.22;5440846;26;20013;-46
2024/04/14 06:28:39;;;;;;;1.95;0.80;;;;;;;29.67;22.22;95662.91;5448770;26;19999;-46
2024/04/14 06:31:04;;;;;;;2.20;1.00;;;;;;;29.93;23.28;95668.72;5442297;26;20056;-46
2024/04/14 06:33:29;;;;;;;4.32;1.13;;;;;;;30.09;23.00;95658.59;5433517;26;20074;-49
2024/04/14 06:35:55;;;;;;;2.78;0.90;;;;;;;30.54;22.03;95667.00;5434809;26;20492;-47
2024/04/14 06:38:21;;;;;;;2.83;1.17;;;;;;;30.55;21.66;95668.63;5437106;26;19999;-50
2024/04/14 06:40:46;;;;;;;1.98;0.80;;;;;;;31.40;20.06;95669.25;5443991;26;20470;-47
2024/04/14 06:43:12;;;;;;;1.88;0.80;;;;;;;32.21;18.86;95676.69;5449762;26;20014;-47
2024/04/14 06:45:38;;;;;;;1.70;0.98;;;;;;;31.41;20.10;95660.06;5430219;26;19999;-46
2024/04/14 06:48:04;;;;;;;0.90;0.80;;;;;;;32.49;19.67;95665.81;5430349;26;20137;-46
2024/04/14 06:50:30;;;;;;;3.53;0.90;;;;;;;32.30;18.60;95666.00;5446712;26;20328;-46
2024/04/14 06:52:55;;;;;;;3.80;1.10;;;;;;;33.24;17.59;95671.47;5447910;26;20056;-47
2024/04/14 06:55:21;;;;;;;2.25;0.90;;;;;;;33.58;16.13;95673.47;5443499;26;20073;-47
2024/04/14 06:57:46;;;;;;;2.10;0.80;;;;;;;33.09;16.66;95668.09;5436332;26;20067;-47
2024/04/14 07:00:12;;;;;;;3.13;0.90;;;;;;;32.88;16.72;95661.63;5430280;26;20005;-47
2024/04/14 07:02:37;;;;;;;2.58;0.90;;;;;;;32.96;17.18;95662.78;5444807;26;19995;-47
2024/04/14 07:05:03;;;;;;;1.83;0.90;;;;;;;33.51;17.03;95667.78;5439135;26;19999;-50
2024/04/14 07:07:28;;;;;;;1.67;0.90;;;;;;;33.66;17.05;95663.84;5447067;26;20067;-47
2024/04/14 07:09:54;;;;;;;1.60;0.88;;;;;;;33.08;19.10;95665.69;5448083;26;20007;-47
2024/04/14 07:12:19;;;;;;;5.53;0.80;;;;;;;34.09;17.74;95655.00;5449423;26;20013;-47
2024/04/14 07:14:45;;;;;;;1.48;0.80;;;;;;;33.71;18.45;95662.91;5441735;26;20010;-45
2024/04/14 07:17:10;;;;;;;1.83;0.70;;;;;;;34.83;17.55;95651.28;5427456;26;19999;-44
2024/04/14 07:19:35;;;;;;;3.08;0.80;;;;;;;34.79;17.83;95660.38;5447126;26;20071;-44
2024/04/14 07:22:01;;;;;;;2.25;0.90;;;;;;;34.75;18.42;95651.31;5445782;26;20013;-45
2024/04/14 07:24:26;;;;;;;2.80;0.90;;;;;;;35.75;17.44;95657.28;5445240;26;20097;-45
2024/04/14 07:26:51;;;;;;;1.63;0.93;;;;;;;34.75;17.15;95662.13;5433647;26;20026;-44
2024/04/14 07:29:17;;;;;;;2.97;0.80;;;;;;;34.37;18.58;95658.19;5438290;26;20088;-44
2024/04/14 07:31:42;;;;;;;2.67;0.80;;;;;;;34.38;18.52;95667.88;5435870;26;19998;-46
2024/04/14 07:34:07;;;;;;;1.50;0.80;;;;;;;34.34;17.09;95664.22;5449467;26;19998;-44
2024/04/14 07:36:33;;;;;;;2.38;0.98;;;;;;;34.83;17.03;95662.09;5410441;26;20014;-44
2024/04/14 07:38:59;;;;;;;2.13;0.88;;;;;;;35.19;17.28;95655.50;5448612;26;20042;-44
2024/04/14 07:41:24;;;;;;;2.35;1.00;;;;;;;35.37;17.28;95664.28;5445163;26;19994;-46
2024/04/14 07:43:51;;;;;;;1.20;0.93;;;;;;;35.34;16.89;95666.84;5442967;26;20014;-44
2024/04/14 07:46:17;;;;;;;2.58;1.08;;;;;;;35.34;16.45;95666.84;5446694;26;20067;-46
2024/04/14 07:48:43;;;;;;;1.17;0.90;;;;;;;34.77;16.16;95660.69;5427400;26;20015;-46
2024/04/14 07:51:08;;;;;;;1.90;0.95;;;;;;;34.91;16.48;95657.00;5440790;26;20333;-48
2024/04/14 07:53:34;;;;;;;1.25;0.90;;;;;;;34.32;19.06;95663.75;5434950;26;20017;-44
2024/04/14 07:56:00;;;;;;;1.67;0.80;;;;;;;34.45;15.66;95654.69;5442876;26;19999;-44
2024/04/14 07:58:25;;;;;;;1.65;1.17;;;;;;;34.85;15.92;95653.69;5433926;26;20067;-45
2024/04/14 08:00:50;;;;;;;4.30;1.08;;;;;;;35.15;18.40;95656.44;5440531;26;20003;-44
2024/04/14 08:03:17;;;;;;;3.38;1.13;;;;;;;34.48;18.36;95650.53;5421585;26;20064;-44
2024/04/14 08:05:43;;;;;;;3.63;1.10;;;;;;;34.64;18.26;95643.53;5442543;26;20006;-45
2024/04/14 08:08:09;;;;;;;2.08;1.08;;;;;;;33.29;20.79;95652.47;5444900;26;20011;-45
2024/04/14 08:10:35;;;;;;;3.03;1.00;;;;;;;32.82;22.20;95641.31;5436371;26;20014;-46
2024/04/14 08:13:00;;;;;;;2.28;0.98;;;;;;;32.71;21.91;95646.16;5412861;26;20007;-46
2024/04/14 08:15:26;;;;;;;2.50;1.17;;;;;;;33.03;21.19;95652.34;5454489;26;20014;-46
2024/04/14 08:17:52;;;;;;;2.45;1.00;;;;;;;32.55;21.19;95643.03;5423792;26;20007;-45
2024/04/14 08:20:18;;;;;;;2.47;1.00;;;;;;;32.89;22.06;95645.16;5444265;26;20009;-44
2024/04/14 08:22:43;;;;;;;2.75;1.10;;;;;;;32.09;22.43;95641.47;5416371;26;20030;-45
2024/04/14 08:25:09;;;;;;;1.48;1.10;;;;;;;32.01;22.19;95640.28;5446718;26;20015;-45
2024/04/14 08:27:34;;;;;;;3.13;1.00;;;;;;;31.94;20.20;95639.88;5447359;26;20018;-44
2024/04/14 08:30:00;;;;;;;1.70;1.25;;;;;;;32.10;20.39;95637.66;5448109;26;20014;-44
2024/04/14 08:32:26;;;;;;;1.50;1.00;;;;;;;31.94;23.44;95639.88;5437356;26;20038;-44
2024/04/14 08:34:51;;;;;;;1.50;0.93;;;;;;;31.95;22.21;95636.13;5450292;26;20552;-44
2024/04/14 08:37:16;;;;;;;1.27;1.02;;;;;;;31.59;20.68;95641.47;5420665;26;20015;-44
2024/04/14 08:39:44;;;;;;;3.65;1.00;;;;;;;32.04;20.37;95636.19;5416189;26;20023;-47
2024/04/14 08:42:10;;;;;;;1.02;0.90;;;;;;;32.12;21.08;95636.28;5443103;26;19999;-50
2024/04/14 08:44:36;;;;;;;1.58;1.00;;;;;;;32.36;19.85;95635.16;5439913;26;20003;-46
2024/04/14 08:47:04;;;;;;;3.05;1.20;;;;;;;32.07;23.39;95638.28;5447647;26;20021;-45
2024/04/14 08:49:30;;;;;;;2.88;1.10;;;;;;;31.81;21.28;95633.44;5447148;26;20516;-49
2024/04/14 08:51:58;;;;;;;2.35;1.27;;;;;;;31.61;24.04;95641.97;5431840;26;20000;-49
2024/04/14 08:54:23;;;;;;;2.10;1.13;;;;;;;31.74;26.54;95635.78;5451522;26;20071;-46
2024/04/14 08:56:55;;;;;;;9.85;1.33;;;;;;;31.83;24.05;95631.25;5437920;26;19999;-48
2024/04/14 08:59:22;;;;;;;5.78;1.30;;;;;;;31.06;25.58;95634.72;5435156;26;20008;-46
2024/04/14 09:01:48;;;;;;;2.55;1.38;;;;;;;31.11;26.64;95634.59;5448492;26;20002;-45
2024/04/14 09:04:15;;;;;;;1.98;1.00;;;;;;;31.13;27.08;95630.53;5435078;26;20014;-45
2024/04/14 09:06:42;;;;;;;2.95;1.45;;;;;;;31.06;25.79;95627.44;5449049;26;20018;-48
2024/04/14 09:09:08;;;;;;;2.92;1.20;;;;;;;30.62;26.46;95633.34;5429751;26;19999;-48
2024/04/14 09:11:34;;;;;;;4.03;1.38;;;;;;;30.18;27.76;95630.00;5443269;26;20372;-47
2024/04/14 09:14:00;;;;;;;2.22;1.52;;;;;;;30.29;26.84;95630.63;5438389;26;19999;-47
2024/04/14 09:16:26;;;;;;;1.60;1.50;;;;;;;30.10;26.55;95642.19;5446354;26;20031;-50
2024/04/14 09:18:54;;;;;;;4.60;1.30;;;;;;;29.93;25.93;95631.16;5443708;26;20010;-48
2024/04/14 09:21:19;;;;;;;3.13;1.30;;;;;;;30.00;24.42;95632.41;5454029;26;20003;-56
2024/04/14 09:23:45;;;;;;;1.95;1.17;;;;;;;29.29;25.11;95638.72;5444159;26;20013;-47
2024/04/14 09:26:10;;;;;;;3.15;1.33;;;;;;;28.87;24.88;95632.19;5446162;26;20071;-47
2024/04/14 09:28:35;;;;;;;2.00;1.30;;;;;;;28.58;25.59;95623.09;5440765;26;20369;-47
2024/04/14 09:31:01;;;;;;;2.28;1.35;;;;;;;28.75;26.68;95622.66;5437327;26;20009;-52
2024/04/14 09:33:27;;;;;;;2.92;1.35;;;;;;;28.59;28.19;95616.66;5449065;26;19998;-47
2024/04/14 09:35:52;;;;;;;2.47;1.40;;;;;;;28.69;25.85;95617.63;5418739;26;20009;-48
2024/04/14 09:38:18;;;;;;;1.95;1.20;;;;;;;28.55;28.88;95617.50;5450776;26;20328;-50
2024/04/14 09:40:44;;;;;;;2.95;1.30;;;;;;;28.46;28.77;95614.59;5447365;26;20424;-49
2024/04/14 09:43:10;;;;;;;4.55;1.58;;;;;;;28.69;30.51;95618.41;5415326;26;19995;-48
2024/04/14 09:45:36;;;;;;;3.35;1.40;;;;;;;28.89;26.31;95616.63;5440903;26;20068;-52
2024/04/14 09:48:02;;;;;;;1.63;1.20;;;;;;;28.99;27.92;95611.94;5448268;26;20006;-51
2024/04/14 09:50:30;;;;;;;6.20;1.65;;;;;;;29.20;25.31;95604.50;5449529;26;20018;-50
2024/04/14 09:52:57;;;;;;;4.72;1.48;;;;;;;29.05;25.63;95607.34;5450689;26;20010;-50
2024/04/14 09:55:23;;;;;;;3.05;1.20;;;;;;;28.83;29.14;95602.50;5448292;26;19995;-50
2024/04/14 09:57:49;;;;;;;2.95;1.48;;;;;;;29.22;28.35;95605.00;5434971;26;19995;-51
2024/04/14 10:00:15;;;;;;;3.03;1.60;;;;;;;29.17;26.53;95597.06;5444209;26;20005;-51
2024/04/14 10:02:49;;;;;;;3.80;1.30;;;;;;;28.83;28.96;95594.47;5439604;26;20006;-51
2024/04/14 10:05:17;;;;;;;3.72;1.40;;;;;;;28.88;26.89;95588.25;5447057;26;20078;-49
2024/04/14 10:07:43;;;;;;;2.47;1.30;;;;;;;28.97;25.88;95592.69;5444606;26;19998;-52
2024/04/14 10:10:10;;;;;;;3.83;1.27;;;;;;;28.91;27.13;95593.06;5447245;26;20006;-47
2024/04/14 10:12:36;;;;;;;3.13;1.55;;;;;;;28.61;28.29;95589.59;5441839;26;20014;-49
2024/04/14 10:15:07;;;;;;;3.30;1.35;;;;;;;28.60;28.39;95588.81;5416231;26;19999;-49
2024/04/14 10:17:33;;;;;;;3.97;1.45;;;;;;;28.87;28.80;95581.31;5446032;26;20056;-50
2024/04/14 10:20:07;;;;;;;5.00;1.80;;;;;;;28.75;30.38;95587.88;5417254;26;20043;-47
2024/04/14 10:22:40;;;;;;;5.00;1.20;;;;;;;29.15;30.75;95582.34;5431964;26;20003;-49
2024/04/14 10:25:25;;;;;;;5.30;1.77;;;;;;;29.31;29.67;95580.28;5446716;26;20086;-52
2024/04/14 10:27:50;;;;;;;3.83;1.70;;;;;;;29.49;28.27;95576.00;5437119;26;20009;-48
2024/04/14 10:30:21;;;;;;;4.70;1.60;;;;;;;29.60;27.32;95580.16;5446952;26;20030;-47
2024/04/14 10:32:46;;;;;;;2.25;1.33;;;;;;;30.05;27.86;95569.84;5442969;26;20002;-50
2024/04/14 10:35:15;;;;;;;3.47;1.45;;;;;;;30.14;27.57;95565.41;5412240;26;20053;-52
2024/04/14 10:37:51;;;;;;;4.13;1.47;;;;;;;29.96;24.70;95558.97;5443491;26;20014;-50
2024/04/14 10:40:17;;;;;;;2.58;1.40;;;;;;;30.04;25.36;95564.78;5446271;26;19995;-50
2024/04/14 10:42:42;;;;;;;3.00;1.65;;;;;;;29.77;25.76;95556.31;5447199;26;19999;-49
2024/04/14 10:45:08;;;;;;;3.92;1.50;;;;;;;30.01;23.92;95544.72;5437532;26;20006;-47
2024/04/14 10:47:33;;;;;;;2.92;1.58;;;;;;;28.84;25.60;95548.69;5466676;26;19999;-50
2024/04/14 10:49:59;;;;;;;2.95;1.40;;;;;;;28.78;25.35;95551.69;5440986;26;20084;-47
2024/04/14 10:52:24;;;;;;;2.65;1.50;;;;;;;29.04;30.09;95554.88;5413427;26;20091;-48
2024/04/14 10:54:49;;;;;;;3.28;1.80;;;;;;;29.15;27.56;95547.53;5445963;26;20071;-49
2024/04/14 10:57:15;;;;;;;2.65;1.60;;;;;;;29.48;28.62;95542.28;5447188;26;19999;-53
2024/04/14 10:59:40;;;;;;;3.63;1.40;;;;;;;29.86;29.68;95540.38;5443358;26;20420;-52
2024/04/14 11:02:07;;;;;;;2.95;1.58;;;;;;;29.83;28.78;95532.91;5449700;26;19998;-48
2024/04/14 11:04:34;;;;;;;3.70;1.60;;;;;;;30.08;27.28;95529.00;5451671;26;20014;-48
2024/04/14 11:07:02;;;;;;;2.53;1.60;;;;;;;29.90;25.88;95519.16;5434203;26;20016;-51
2024/04/14 11:09:29;;;;;;;3.35;1.88;;;;;;;29.63;26.72;95528.66;5437186;26;20019;-49
2024/04/14 11:11:56;;;;;;;3.47;1.50;;;;;;;29.68;27.81;95527.75;5446576;26;20321;-50
2024/04/14 11:14:22;;;;;;;2.75;1.50;;;;;;;29.51;28.57;95514.88;5438825;26;20009;-50
2024/04/14 11:16:48;;;;;;;2.97;1.60;;;;;;;29.99;28.43;95512.81;5446374;26;20467;-49
2024/04/14 11:19:14;;;;;;;5.13;1.73;;;;;;;30.13;27.98;95509.38;5445897;26;19995;-48
2024/04/14 11:21:39;;;;;;;2.88;1.52;;;;;;;30.14;28.62;95508.25;5439634;26;20047;-49
2024/04/14 11:24:08;;;;;;;5.95;1.73;;;;;;;30.13;25.43;95504.00;5438038;26;19995;-48
2024/04/14 11:26:34;;;;;;;5.80;2.00;;;;;;;30.04;26.12;95505.75;5437930;26;20003;-50
2024/04/14 11:28:59;;;;;;;4.35;1.63;;;;;;;29.87;26.77;95504.41;5440299;26;20327;-51